createdAt,value
2023-01-02T00:02:10.514Z,20.27
2023-01-02T00:04:58.270Z,19.80
2023-01-02T00:07:45.981Z,18.92
2023-01-02T00:10:33.648Z,25.45
2023-01-02T00:13:21.398Z,22.70
2023-01-02T00:16:09.521Z,25.38
2023-01-02T00:18:57.249Z,25.27
2023-01-02T00:21:44.951Z,27.52
2023-01-02T00:24:32.676Z,26.33
2023-01-02T00:27:20.278Z,20.25
2023-01-02T00:30:08.684Z,18.05
2023-01-02T00:32:56.625Z,21.83
2023-01-02T00:35:44.368Z,21.60
2023-01-02T00:38:32.021Z,17.73
2023-01-02T00:41:21.636Z,20.83
2023-01-02T00:44:09.318Z,21.23
2023-01-02T00:46:57.164Z,21.35
2023-01-02T00:49:44.844Z,21.25
2023-01-02T00:52:32.592Z,23.88
2023-01-02T00:55:20.235Z,23.77
2023-01-02T00:58:07.929Z,31.65
2023-01-02T01:00:55.740Z,41.10
2023-01-02T01:03:43.858Z,38.10
2023-01-02T01:06:31.462Z,41.53
2023-01-02T01:09:20.190Z,62.58
2023-01-02T01:12:08.189Z,49.83
2023-01-02T01:14:55.874Z,53.33
2023-01-02T01:17:43.810Z,51.22
2023-01-02T01:20:31.460Z,48.00
2023-01-02T01:23:19.146Z,35.55
2023-01-02T01:26:08.819Z,34.65
2023-01-02T01:28:57.079Z,33.30
2023-01-02T01:31:44.791Z,24.70
2023-01-02T01:34:32.571Z,29.50
2023-01-02T01:37:20.115Z,27.00
2023-01-02T01:40:08.320Z,27.25
2023-01-02T01:43:00.706Z,29.17
2023-01-02T01:45:48.637Z,32.30
2023-01-02T01:48:37.011Z,37.38
2023-01-02T01:51:27.831Z,28.90
2023-01-02T01:54:22.091Z,33.55
2023-01-02T01:57:59.510Z,35.97
2023-01-02T02:00:48.444Z,33.08
2023-01-02T02:03:37.778Z,36.45
2023-01-02T02:06:25.602Z,37.40
2023-01-02T02:09:19.385Z,32.40
2023-01-02T02:12:08.231Z,44.55
2023-01-02T02:14:55.887Z,42.30
2023-01-02T02:18:04.894Z,40.78
2023-01-02T02:21:09.023Z,48.47
2023-01-02T02:24:11.332Z,41.70
2023-01-02T02:30:05.028Z,73.28
2023-01-02T02:33:15.673Z,80.03
2023-01-02T02:36:34.951Z,74.63
2023-01-02T02:39:40.890Z,65.82
2023-01-02T02:42:55.893Z,61.50
2023-01-02T02:46:03.362Z,56.08
2023-01-02T02:49:04.902Z,53.22
2023-01-02T02:52:07.756Z,67.95
2023-01-02T02:55:07.579Z,64.00
2023-01-02T02:57:57.392Z,55.25
2023-01-02T03:00:45.022Z,56.00
2023-01-02T03:03:32.843Z,58.72
2023-01-02T03:06:36.676Z,58.10
2023-01-02T03:09:43.926Z,64.18
2023-01-02T03:12:50.280Z,53.15
2023-01-02T03:15:51.636Z,49.47
2023-01-02T03:18:45.965Z,47.65
2023-01-02T03:21:41.715Z,40.30
2023-01-02T03:24:30.938Z,46.13
2023-01-02T03:27:24.281Z,38.28
2023-01-02T03:30:17.594Z,36.70
2023-01-02T03:33:13.562Z,34.00
2023-01-02T03:36:06.846Z,34.20
2023-01-02T03:39:03.903Z,33.05
2023-01-02T03:42:02.680Z,34.55
2023-01-02T03:45:16.443Z,31.92
2023-01-02T03:48:15.981Z,32.42
2023-01-02T03:51:04.573Z,23.90
2023-01-02T03:53:53.530Z,20.52
2023-01-02T03:56:52.457Z,16.33
2023-01-02T03:59:58.584Z,17.30
2023-01-02T04:03:03.003Z,21.40
2023-01-02T04:06:00.618Z,28.80
2023-01-02T04:08:56.999Z,32.13
2023-01-02T04:11:51.002Z,22.20
2023-01-02T04:14:46.024Z,17.55
2023-01-02T04:17:41.098Z,19.63
2023-01-02T04:20:35.320Z,17.75
2023-01-02T04:23:32.576Z,15.10
2023-01-02T04:26:49.792Z,18.48
2023-01-02T04:29:37.600Z,20.10
2023-01-02T04:32:34.017Z,21.00
2023-01-02T04:35:24.372Z,16.35
2023-01-02T04:38:12.753Z,23.00
2023-01-02T04:41:00.727Z,18.50
2023-01-02T04:43:49.506Z,33.38
2023-01-02T04:46:37.280Z,50.25
2023-01-02T04:49:26.896Z,40.63
2023-01-02T04:52:14.637Z,41.03
2023-01-02T04:55:08.228Z,37.83
2023-01-02T04:57:57.877Z,41.47
2023-01-02T05:00:45.717Z,48.92
2023-01-02T05:03:33.660Z,36.83
2023-01-02T05:06:22.874Z,44.30
2023-01-02T05:09:10.794Z,38.75
2023-01-02T05:12:01.222Z,42.58
2023-01-02T05:14:57.714Z,36.00
2023-01-02T05:17:45.423Z,32.83
2023-01-02T05:24:00.947Z,37.70
2023-01-02T05:27:05.133Z,36.53
2023-01-02T05:29:52.919Z,43.78
2023-01-02T05:32:40.576Z,51.70
2023-01-02T05:35:32.397Z,43.97
2023-01-02T05:38:21.220Z,34.90
2023-01-02T05:41:08.971Z,43.30
2023-01-02T05:43:56.959Z,45.80
2023-01-02T05:46:44.674Z,50.97
2023-01-02T05:49:34.834Z,38.30
2023-01-02T05:52:26.804Z,36.63
2023-01-02T05:55:16.899Z,45.33
2023-01-02T05:58:04.550Z,40.25
2023-01-02T06:00:52.321Z,41.22
2023-01-02T06:03:40.420Z,44.05
2023-01-02T06:06:34.557Z,48.08
2023-01-02T06:09:22.246Z,47.08
2023-01-02T06:12:12.906Z,45.90
2023-01-02T06:15:00.651Z,38.70
2023-01-02T06:17:48.380Z,43.05
2023-01-02T06:20:36.173Z,41.05
2023-01-02T06:23:24.612Z,65.38
2023-01-02T06:26:18.194Z,85.80
2023-01-02T06:29:05.919Z,89.68
2023-01-02T06:31:55.893Z,84.15
2023-01-02T06:34:46.781Z,69.90
2023-01-02T06:37:34.518Z,59.50
2023-01-02T06:47:03.115Z,54.22
2023-01-02T06:49:50.807Z,56.17
2023-01-02T06:52:38.508Z,63.72
2023-01-02T06:55:26.118Z,56.03
2023-01-02T06:58:19.250Z,80.90
2023-01-02T07:01:11.577Z,76.88
2023-01-02T07:03:59.425Z,81.13
2023-01-02T07:06:49.436Z,69.30
2023-01-02T07:09:37.225Z,37.20
2023-01-02T07:12:24.796Z,37.33
2023-01-02T07:15:12.555Z,35.25
2023-01-02T07:18:00.183Z,36.80
2023-01-02T07:20:54.392Z,37.40
2023-01-02T07:23:42.859Z,39.30
2023-01-02T07:26:30.636Z,41.28
2023-01-02T07:29:18.648Z,40.05
2023-01-02T07:32:06.521Z,42.28
2023-01-02T07:34:54.598Z,27.13
2023-01-02T07:37:42.308Z,35.70
2023-01-02T07:40:32.330Z,71.80
2023-01-02T07:43:21.907Z,55.15
2023-01-02T07:46:09.614Z,47.63
2023-01-02T07:48:57.293Z,53.47
2023-01-02T07:51:45.053Z,60.17
2023-01-02T07:54:32.658Z,56.17
2023-01-02T07:57:20.474Z,54.45
2023-01-02T08:00:08.961Z,60.03
2023-01-02T08:02:59.640Z,45.45
2023-01-02T08:05:50.869Z,51.10
2023-01-02T08:08:39.142Z,53.95
2023-01-02T08:11:27.907Z,41.65
2023-01-02T08:14:21.590Z,26.80
2023-01-02T08:17:13.571Z,30.75
2023-01-02T08:20:07.168Z,41.35
2023-01-02T08:22:56.792Z,38.90
2023-01-02T08:25:44.529Z,36.83
2023-01-02T08:28:36.330Z,43.15
2023-01-02T08:31:27.029Z,44.30
2023-01-02T08:34:15.454Z,17.52
2023-01-02T08:37:09.167Z,14.02
2023-01-02T08:39:59.795Z,17.30
2023-01-02T08:42:47.429Z,15.70
2023-01-02T08:45:35.628Z,16.73
2023-01-02T08:48:23.348Z,16.05
2023-01-02T08:51:11.925Z,14.15
2023-01-02T08:53:59.638Z,22.67
2023-01-02T08:56:48.803Z,15.73
2023-01-02T09:00:08.810Z,16.98
2023-01-02T09:02:57.289Z,12.25
2023-01-02T09:05:45.079Z,18.58
2023-01-02T09:08:32.757Z,18.95
2023-01-02T09:11:23.861Z,15.52
2023-01-02T09:14:40.296Z,13.05
2023-01-02T09:17:44.943Z,14.70
2023-01-02T09:20:32.630Z,12.80
2023-01-02T09:24:53.721Z,11.18
2023-01-02T09:27:43.663Z,11.77
2023-01-02T09:30:32.833Z,13.18
2023-01-02T09:33:20.632Z,12.98
2023-01-02T09:36:12.079Z,18.15
2023-01-02T09:39:01.570Z,13.57
2023-01-02T09:41:56.061Z,16.33
2023-01-02T09:44:52.530Z,9.82
2023-01-02T09:47:42.178Z,15.20
2023-01-02T09:50:33.431Z,15.93
2023-01-02T09:53:21.061Z,14.55
2023-01-02T09:56:21.018Z,11.65
2023-01-02T09:59:32.057Z,17.63
2023-01-02T10:02:31.826Z,8.13
2023-01-02T10:05:35.456Z,12.38
2023-01-02T10:08:44.316Z,9.40
2023-01-02T10:11:43.749Z,9.80
2023-01-02T10:15:12.366Z,38.70
2023-01-02T10:18:10.125Z,16.00
2023-01-02T10:21:05.807Z,15.95
2023-01-02T10:24:28.515Z,14.73
2023-01-02T10:27:21.607Z,12.60
2023-01-02T10:30:22.975Z,16.85
2023-01-02T10:33:28.474Z,14.88
2023-01-02T10:36:27.440Z,39.78
2023-01-02T10:39:19.093Z,18.70
2023-01-02T10:42:07.106Z,13.88
2023-01-02T10:44:57.394Z,31.25
2023-01-02T10:47:52.081Z,16.83
2023-01-02T10:50:48.820Z,19.33
2023-01-02T10:53:37.686Z,14.18
2023-01-02T10:56:37.271Z,17.30
2023-01-02T10:59:30.075Z,12.75
2023-01-02T11:02:37.711Z,13.23
2023-01-02T11:05:31.789Z,15.23
2023-01-02T11:08:24.513Z,13.23
2023-01-02T11:11:20.679Z,14.93
2023-01-02T11:14:11.225Z,10.52
2023-01-02T11:17:10.633Z,17.17
2023-01-02T11:20:00.634Z,10.43
2023-01-02T11:22:48.535Z,10.82
2023-01-02T11:25:47.850Z,10.70
2023-01-02T11:28:39.233Z,13.25
2023-01-02T11:31:27.297Z,11.10
2023-01-02T11:34:34.596Z,12.15
2023-01-02T11:37:22.295Z,5.28
2023-01-02T11:40:27.246Z,15.23
2023-01-02T11:43:33.668Z,11.18
2023-01-02T11:46:31.551Z,12.13
2023-01-02T11:49:29.880Z,25.52
2023-01-02T11:52:21.593Z,21.35
2023-01-02T11:55:33.139Z,55.22
2023-01-02T11:58:51.619Z,20.95
2023-01-02T12:01:55.992Z,16.75
2023-01-02T12:04:43.758Z,20.27
2023-01-02T12:07:45.621Z,18.17
2023-01-02T12:10:47.703Z,9.93
2023-01-02T12:20:15.114Z,19.75
2023-01-02T12:23:40.720Z,10.80
2023-01-02T12:26:57.444Z,12.82
2023-01-02T12:29:53.119Z,12.48
2023-01-02T12:33:08.356Z,17.90
2023-01-02T12:36:08.116Z,13.45
2023-01-02T12:39:05.749Z,34.95
2023-01-02T12:42:02.397Z,19.50
2023-01-02T12:44:58.854Z,7.20
2023-01-02T12:48:01.583Z,8.50
2023-01-02T12:50:56.410Z,15.15
2023-01-02T12:53:47.391Z,17.35
2023-01-02T12:57:25.367Z,13.02
2023-01-02T13:00:24.759Z,20.13
2023-01-02T13:03:51.194Z,8.13
2023-01-02T13:07:08.564Z,8.45
2023-01-02T13:09:58.971Z,12.90
2023-01-02T13:12:47.726Z,16.42
2023-01-02T13:15:37.737Z,11.73
2023-01-02T13:19:00.231Z,11.45
2023-01-02T13:22:39.391Z,17.75
2023-01-02T13:25:31.136Z,6.70
2023-01-02T13:28:20.066Z,12.55
2023-01-02T13:31:44.642Z,13.73
2023-01-02T13:34:30.644Z,6.22
2023-01-02T13:37:25.248Z,7.63
2023-01-02T13:40:25.640Z,8.02
2023-01-02T13:43:25.820Z,5.32
2023-01-02T13:46:53.381Z,12.95
2023-01-02T13:49:28.963Z,14.10
2023-01-02T13:52:24.189Z,15.70
2023-01-02T13:55:28.742Z,40.22
2023-01-02T13:58:19.675Z,24.08
2023-01-02T14:01:23.080Z,14.35
2023-01-02T14:04:13.604Z,25.98
2023-01-02T14:07:29.802Z,28.55
2023-01-02T14:10:27.360Z,20.10
2023-01-02T14:13:23.415Z,12.30
2023-01-02T14:16:12.084Z,13.30
2023-01-02T14:19:13.609Z,12.68
2023-01-02T14:22:13.289Z,14.27
2023-01-02T14:25:06.146Z,16.42
2023-01-02T14:28:04.931Z,48.13
2023-01-02T14:30:56.874Z,36.75
2023-01-02T14:33:52.471Z,20.98
2023-01-02T14:36:48.741Z,18.20
2023-01-02T14:39:37.160Z,19.70
2023-01-02T14:42:52.357Z,26.23
2023-01-02T14:46:00.652Z,58.30
2023-01-02T14:49:25.031Z,33.97
2023-01-02T14:52:28.276Z,34.00
2023-01-02T14:55:27.584Z,51.97
2023-01-02T14:58:39.371Z,61.40
2023-01-02T15:01:43.352Z,45.05
2023-01-02T15:04:40.386Z,52.38
2023-01-02T15:07:35.495Z,48.58
2023-01-02T15:10:24.242Z,57.38
2023-01-02T15:13:12.112Z,61.90
2023-01-02T15:16:09.436Z,74.80
2023-01-02T15:19:09.518Z,199.68
2023-01-02T15:22:12.800Z,199.95
2023-01-02T15:25:01.087Z,89.40
2023-01-02T15:27:54.215Z,62.28
2023-01-02T15:30:42.932Z,78.07
2023-01-02T15:33:33.503Z,65.47
2023-01-02T15:36:38.909Z,74.85
2023-01-02T15:39:35.784Z,67.47
2023-01-02T15:42:45.443Z,67.35
2023-01-02T15:46:00.374Z,106.70
2023-01-02T15:48:50.537Z,78.50
2023-01-02T15:51:41.888Z,78.57
2023-01-02T15:54:58.015Z,81.57
2023-01-02T15:57:51.877Z,84.13
2023-01-02T16:00:42.508Z,66.40
2023-01-02T16:04:01.794Z,99.18
2023-01-02T16:07:53.219Z,90.85
2023-01-02T16:11:21.005Z,140.27
2023-01-02T16:14:22.447Z,143.35
2023-01-02T16:17:32.804Z,147.80
2023-01-02T16:20:22.229Z,177.38
2023-01-02T16:23:20.916Z,193.52
2023-01-02T16:26:14.551Z,166.25
2023-01-02T16:29:02.455Z,133.93
2023-01-02T16:32:02.766Z,213.15
2023-01-02T16:35:24.182Z,229.48
2023-01-02T16:38:28.163Z,223.10
2023-01-02T16:41:45.020Z,278.48
2023-01-02T16:44:35.803Z,256.83
2023-01-02T16:47:37.953Z,208.40
2023-01-02T16:50:28.528Z,222.45
2023-01-02T16:53:36.664Z,235.30
2023-01-02T16:56:24.424Z,200.82
2023-01-02T16:59:12.216Z,196.95
2023-01-02T17:02:00.075Z,213.43
2023-01-02T17:04:50.277Z,200.10
2023-01-02T17:07:41.031Z,203.45
2023-01-02T17:10:29.522Z,230.23
2023-01-02T17:13:23.372Z,221.20
2023-01-02T17:16:14.824Z,204.27
2023-01-02T17:19:02.479Z,213.00
2023-01-02T17:21:50.991Z,181.07
2023-01-02T17:24:38.917Z,176.55
2023-01-02T17:27:26.690Z,172.82
2023-01-02T17:30:15.777Z,167.85
2023-01-02T17:33:04.449Z,141.48
2023-01-02T17:35:54.768Z,150.95
2023-01-02T17:38:42.529Z,144.43
2023-01-02T17:41:30.330Z,122.28
2023-01-02T17:44:21.025Z,132.02
2023-01-02T17:47:56.939Z,137.55
2023-01-02T17:50:22.128Z,148.65
2023-01-02T17:53:09.787Z,143.10
2023-01-02T17:56:21.657Z,133.00
2023-01-02T17:59:07.146Z,159.30
2023-01-02T18:01:54.872Z,153.80
2023-01-02T18:04:48.220Z,168.45
2023-01-02T18:07:40.328Z,158.52
2023-01-02T18:10:33.112Z,160.00
2023-01-02T18:13:23.889Z,166.05
2023-01-02T18:16:21.441Z,142.63
2023-01-02T18:19:21.912Z,145.90
2023-01-02T18:22:24.635Z,160.90
2023-01-02T18:25:20.126Z,146.13
2023-01-02T18:28:26.852Z,134.32
2023-01-02T18:31:17.668Z,148.07
2023-01-02T18:34:46.992Z,137.60
2023-01-02T18:37:33.246Z,140.48
2023-01-02T18:40:27.919Z,138.15
2023-01-02T18:43:35.996Z,138.07
2023-01-02T18:47:04.379Z,142.52
2023-01-02T18:49:45.663Z,125.20
2023-01-02T18:52:33.993Z,148.38
2023-01-02T18:55:28.034Z,159.05
2023-01-02T18:58:41.225Z,137.30
2023-01-02T19:01:36.140Z,146.40
2023-01-02T19:04:30.855Z,143.02
2023-01-02T19:07:30.134Z,171.07
2023-01-02T19:10:39.215Z,166.30
2023-01-02T19:13:34.333Z,153.18
2023-01-02T19:16:22.157Z,157.02
2023-01-02T19:19:18.083Z,179.05
2023-01-02T19:22:13.685Z,174.82
2023-01-02T19:25:09.080Z,177.55
2023-01-02T19:27:58.651Z,174.80
2023-01-02T19:30:50.010Z,177.18
2023-01-02T19:33:41.672Z,175.50
2023-01-02T19:36:43.081Z,148.43
2023-01-02T19:39:38.695Z,106.38
2023-01-02T19:42:32.103Z,104.40
2023-01-02T19:45:22.502Z,90.20
2023-01-02T19:48:14.901Z,100.50
2023-01-02T19:51:05.630Z,77.88
2023-01-02T19:53:56.338Z,76.13
2023-01-02T19:56:46.417Z,74.75
2023-01-02T19:59:40.039Z,63.95
2023-01-02T20:02:34.076Z,55.53
2023-01-02T20:05:23.111Z,53.95
2023-01-02T20:08:11.344Z,58.47
2023-01-02T20:11:01.488Z,58.35
2023-01-02T20:13:50.038Z,45.42
2023-01-02T20:16:37.843Z,45.22
2023-01-02T20:19:26.093Z,32.40
2023-01-02T20:22:13.759Z,31.63
2023-01-02T20:25:02.557Z,31.85
2023-01-02T20:27:51.755Z,29.08
2023-01-02T20:30:42.168Z,27.10
2023-01-02T20:33:30.719Z,44.67
2023-01-02T20:36:18.721Z,40.22
2023-01-02T20:39:07.033Z,51.38
2023-01-02T20:41:54.728Z,58.65
2023-01-02T20:44:42.794Z,56.40
2023-01-02T20:47:30.521Z,62.60
2023-01-02T20:50:18.374Z,63.30
2023-01-02T20:53:07.208Z,76.85
2023-01-02T20:55:55.038Z,70.97
2023-01-02T20:58:42.755Z,66.97
2023-01-02T21:01:33.200Z,80.15
2023-01-02T21:04:25.646Z,75.28
2023-01-02T21:07:17.929Z,70.18
2023-01-02T21:10:06.089Z,75.07
2023-01-02T21:13:09.848Z,84.68
2023-01-02T21:15:58.984Z,87.97
2023-01-02T21:18:46.840Z,96.90
2023-01-02T21:21:34.451Z,57.42
2023-01-02T21:24:22.081Z,45.58
2023-01-02T21:27:13.623Z,41.67
2023-01-02T21:30:01.338Z,46.22
2023-01-02T21:32:49.041Z,46.70
2023-01-02T21:35:37.732Z,55.78
2023-01-02T21:38:26.926Z,39.70
2023-01-02T21:41:33.101Z,46.25
2023-01-02T21:44:20.910Z,40.67
2023-01-02T21:47:08.671Z,35.92
2023-01-02T21:49:56.407Z,31.80
2023-01-02T21:52:44.376Z,36.50
2023-01-02T21:55:32.191Z,38.28
2023-01-02T21:58:21.008Z,54.33
2023-01-02T22:01:08.737Z,45.03
2023-01-02T22:03:57.583Z,32.20
2023-01-02T22:07:29.621Z,28.10
2023-01-02T22:09:53.137Z,24.38
2023-01-02T22:12:41.342Z,22.02
2023-01-02T22:15:28.967Z,89.30
2023-01-02T22:18:16.819Z,88.60
2023-01-02T22:21:04.532Z,57.05
2023-01-02T22:23:52.226Z,44.22
2023-01-02T22:26:41.336Z,31.52
2023-01-02T22:29:51.617Z,26.92
2023-01-02T22:32:37.785Z,23.33
2023-01-02T22:35:25.534Z,24.75
2023-01-02T22:38:13.321Z,31.15
2023-01-02T22:41:01.382Z,50.80
2023-01-02T22:43:49.183Z,49.92
2023-01-02T22:46:43.867Z,35.03
2023-01-02T22:49:38.603Z,35.22
2023-01-02T22:52:27.197Z,30.00
2023-01-02T22:55:20.764Z,41.35
2023-01-02T22:58:08.909Z,38.63
2023-01-02T23:01:19.308Z,32.55
2023-01-02T23:04:18.664Z,33.95
2023-01-02T23:07:23.183Z,35.90
2023-01-02T23:10:14.531Z,47.05
2023-01-02T23:13:02.374Z,48.42
2023-01-02T23:16:08.576Z,53.83
2023-01-02T23:19:14.663Z,44.38
2023-01-02T23:22:02.377Z,63.45
2023-01-02T23:24:50.671Z,64.30
2023-01-02T23:27:41.333Z,62.22
2023-01-02T23:30:28.948Z,54.60
2023-01-02T23:33:16.650Z,66.85
2023-01-02T23:36:04.801Z,49.22
2023-01-02T23:38:52.489Z,39.58
2023-01-02T23:41:41.858Z,38.22
2023-01-02T23:44:29.776Z,45.35
2023-01-02T23:47:19.465Z,51.17
2023-01-02T23:50:07.411Z,38.45
2023-01-02T23:52:55.110Z,47.13
2023-01-02T23:55:45.014Z,43.10
2023-01-02T23:58:32.718Z,35.67
